Time;durP1;ratioP1;P1;durP2;ratioP2;P2;SDS_P1;SDS_P2;PMS_P1;PMS_P2;Temp;Humidity;BMP_temperature;BMP_pressure;BME280_temperature;BME280_humidity;BME280_pressure;Samples;Min_cycle;Max_cycle;Signal;HPM_P1;HPM_P2
2024/01/17 00:00:20;;;;;;;10.40;5.73;;;;;;;-1.79;82.02;99567.81;5055119;28;20554;-74
2024/01/17 00:02:49;;;;;;;9.47;5.30;;;;;;;-1.85;82.34;99560.38;5055177;28;20222;-74
2024/01/17 00:05:19;;;;;;;11.60;5.50;;;;;;;-1.84;83.12;99556.81;5055153;28;20225;-74
2024/01/17 00:07:47;;;;;;;9.43;6.17;;;;;;;-1.88;83.07;99560.59;5055489;28;20293;-74
2024/01/17 00:10:17;;;;;;;13.60;6.00;;;;;;;-1.90;82.48;99557.25;5055146;28;20202;-74
2024/01/17 00:12:45;;;;;;;11.80;5.13;;;;;;;-1.85;83.77;99549.06;5055006;28;20310;-74
2024/01/17 00:15:13;;;;;;;11.97;6.00;;;;;;;-1.89;83.85;99548.44;5055114;28;20205;-74
2024/01/17 00:17:42;;;;;;;11.93;5.63;;;;;;;-1.90;83.04;99538.06;5055019;28;20659;-75
2024/01/17 00:20:11;;;;;;;12.67;5.90;;;;;;;-1.88;82.54;99537.00;5054964;28;20217;-76
2024/01/17 00:22:41;;;;;;;12.97;5.23;;;;;;;-2.02;82.04;99531.09;5054943;28;20230;-74
2024/01/17 00:25:10;;;;;;;13.13;6.63;;;;;;;-1.97;82.50;99521.94;5054871;28;20316;-75
2024/01/17 00:27:39;;;;;;;17.97;6.53;;;;;;;-1.99;83.46;99515.97;5054786;28;20202;-74
2024/01/17 00:30:08;;;;;;;11.27;5.67;;;;;;;-1.99;83.24;99510.72;5054716;28;20668;-75
2024/01/17 00:32:37;;;;;;;8.60;5.60;;;;;;;-1.93;83.47;99510.28;5054642;28;20332;-74
2024/01/17 00:35:08;;;;;;;11.57;5.90;;;;;;;-1.94;82.73;99503.34;5054328;28;20232;-74
2024/01/17 00:37:37;;;;;;;10.47;6.10;;;;;;;-1.89;82.34;99498.63;5054703;28;20194;-74
2024/01/17 00:40:08;;;;;;;9.10;5.40;;;;;;;-1.89;82.53;99496.00;5054556;28;20241;-74
2024/01/17 00:42:37;;;;;;;12.63;5.60;;;;;;;-1.87;82.43;99488.84;5054483;28;20226;-76
2024/01/17 00:45:07;;;;;;;8.73;5.13;;;;;;;-1.85;81.95;99492.16;5054641;28;20226;-76
2024/01/17 00:47:36;;;;;;;10.83;5.70;;;;;;;-1.81;82.43;99479.66;5054133;28;20214;-75
2024/01/17 00:50:05;;;;;;;11.33;5.97;;;;;;;-1.81;83.38;99475.25;5054366;28;20210;-75
2024/01/17 00:52:34;;;;;;;12.13;5.87;;;;;;;-1.80;83.98;99476.09;5053884;28;20735;-74
2024/01/17 00:55:03;;;;;;;9.27;5.83;;;;;;;-1.80;84.19;99474.31;5054232;28;20742;-74
2024/01/17 00:57:33;;;;;;;9.83;5.37;;;;;;;-1.80;83.27;99471.69;5053467;28;20236;-74
2024/01/17 01:00:02;;;;;;;11.73;5.80;;;;;;;-1.79;83.25;99467.28;5053895;28;20656;-75
2024/01/17 01:02:30;;;;;;;13.30;5.57;;;;;;;-1.80;83.67;99463.81;5054083;28;20236;-74
2024/01/17 01:04:59;;;;;;;11.10;5.57;;;;;;;-1.80;83.09;99471.69;5054044;28;20257;-76
2024/01/17 01:07:27;;;;;;;9.13;5.27;;;;;;;-1.95;82.71;99464.13;5054124;28;20206;-75
2024/01/17 01:09:56;;;;;;;11.80;5.77;;;;;;;-2.02;83.76;99468.97;5054937;28;20210;-74
2024/01/17 01:12:25;;;;;;;9.67;5.30;;;;;;;-2.08;84.14;99458.94;5054477;28;20304;-74
2024/01/17 01:14:55;;;;;;;12.17;5.30;;;;;;;-2.14;83.71;99454.97;5056754;28;20230;-75
2024/01/17 01:17:23;;;;;;;10.93;5.23;;;;;;;-2.12;82.39;99437.34;5053850;28;20202;-73
2024/01/17 01:19:52;;;;;;;10.73;4.77;;;;;;;-2.09;82.52;99447.59;5053881;28;20206;-75
2024/01/17 01:22:21;;;;;;;14.53;5.00;;;;;;;-2.14;83.07;99454.13;5053718;28;20208;-74
2024/01/17 01:24:49;;;;;;;9.93;4.93;;;;;;;-2.19;82.51;99440.50;5053361;28;20210;-76
2024/01/17 01:27:18;;;;;;;10.23;5.37;;;;;;;-2.18;83.35;99442.19;5053900;28;20292;-74
2024/01/17 01:29:46;;;;;;;12.93;5.60;;;;;;;-2.14;82.59;99438.41;5053716;28;20212;-74
2024/01/17 01:32:16;;;;;;;13.90;5.40;;;;;;;-2.13;83.35;99438.31;5053290;28;20209;-74
2024/01/17 01:34:45;;;;;;;8.83;4.57;;;;;;;-2.11;82.34;99430.31;5053389;28;20217;-75
2024/01/17 01:37:13;;;;;;;9.77;4.43;;;;;;;-2.07;83.75;99429.13;5053283;28;20629;-74
2024/01/17 01:39:42;;;;;;;9.20;5.33;;;;;;;-2.09;82.11;99436.28;5053602;28;20294;-74
2024/01/17 01:42:10;;;;;;;7.17;4.37;;;;;;;-2.06;82.33;99430.81;5053428;28;20750;-74
2024/01/17 01:44:39;;;;;;;11.10;4.80;;;;;;;-2.04;83.41;99413.19;5053252;28;20703;-74
2024/01/17 01:47:08;;;;;;;9.47;5.30;;;;;;;-2.00;82.74;99413.78;5053444;28;20265;-74
2024/01/17 01:49:38;;;;;;;10.73;4.87;;;;;;;-2.02;83.76;99416.50;5053451;28;20307;-74
2024/01/17 01:52:09;;;;;;;7.40;4.60;;;;;;;-2.07;81.80;99429.13;5054106;28;20213;-74
2024/01/17 01:54:39;;;;;;;9.63;4.93;;;;;;;-2.16;81.15;99417.53;5053490;28;20194;-75
2024/01/17 01:57:09;;;;;;;7.43;4.67;;;;;;;-2.21;81.04;99416.19;5053663;28;20202;-75
2024/01/17 01:59:38;;;;;;;8.13;4.80;;;;;;;-2.20;82.45;99417.88;5053678;28;20255;-75
2024/01/17 02:02:07;;;;;;;11.73;4.90;;;;;;;-2.23;82.18;99408.47;5053102;28;20572;-74
2024/01/17 02:04:36;;;;;;;8.43;5.13;;;;;;;-2.27;82.57;99408.78;5053357;28;20301;-75
2024/01/17 02:07:08;;;;;;;9.97;5.27;;;;;;;-2.32;81.52;99414.38;5053518;28;20234;-75
2024/01/17 02:09:37;;;;;;;7.87;4.60;;;;;;;-2.32;81.88;99408.28;5057123;28;20630;-75
2024/01/17 02:12:07;;;;;;;9.63;5.00;;;;;;;-2.31;81.56;99399.47;5057287;28;20292;-73
2024/01/17 02:14:40;;;;;;;8.47;4.33;;;;;;;-2.35;82.59;99390.16;5057391;28;20532;-74
2024/01/17 02:17:09;;;;;;;11.07;4.17;;;;;;;-2.35;81.79;99391.00;5057353;28;20232;-74
2024/01/17 02:19:40;;;;;;;14.13;5.43;;;;;;;-2.34;82.52;99384.81;5057234;28;20264;-74
2024/01/17 02:22:10;;;;;;;9.00;4.70;;;;;;;-2.37;81.32;99392.06;5057246;28;20200;-73
2024/01/17 02:24:40;;;;;;;7.90;4.47;;;;;;;-2.33;81.50;99390.91;5057381;28;20202;-74
2024/01/17 02:27:08;;;;;;;9.20;4.67;;;;;;;-2.30;81.88;99375.78;5057040;28;20257;-74
2024/01/17 02:29:37;;;;;;;8.23;4.67;;;;;;;-2.31;83.04;99366.25;5057060;28;20210;-74
2024/01/17 02:32:06;;;;;;;9.73;4.60;;;;;;;-2.27;83.10;99365.06;5056936;28;20206;-73
2024/01/17 02:34:35;;;;;;;9.70;4.80;;;;;;;-2.26;83.25;99361.47;5056848;28;20236;-73
2024/01/17 02:37:04;;;;;;;7.70;4.47;;;;;;;-2.32;82.29;99354.06;5056898;28;20210;-73
2024/01/17 02:39:32;;;;;;;8.07;4.50;;;;;;;-2.38;82.04;99354.53;5056845;28;20672;-73
2024/01/17 02:42:02;;;;;;;8.60;4.60;;;;;;;-2.45;81.96;99345.44;5056842;28;20289;-74
2024/01/17 02:44:30;;;;;;;9.60;4.33;;;;;;;-2.41;83.16;99335.56;5056823;28;20301;-75
2024/01/17 02:46:59;;;;;;;14.13;4.80;;;;;;;-2.42;82.52;99331.28;5056910;28;20248;-75
2024/01/17 02:49:27;;;;;;;8.60;5.03;;;;;;;-2.48;82.91;99324.72;5056792;28;20209;-75
2024/01/17 02:51:56;;;;;;;9.50;4.67;;;;;;;-2.50;82.27;99326.59;5056617;28;20202;-74
2024/01/17 02:54:24;;;;;;;10.27;4.27;;;;;;;-2.54;82.23;99334.81;5056243;28;20669;-74
2024/01/17 02:56:53;;;;;;;9.43;4.97;;;;;;;-2.51;83.31;99339.81;5056588;28;20284;-74
2024/01/17 02:59:23;;;;;;;6.93;4.20;;;;;;;-2.52;82.51;99331.13;5056536;28;20294;-75
2024/01/17 03:01:53;;;;;;;13.53;4.50;;;;;;;-2.50;82.03;99331.03;5056232;28;20576;-75
2024/01/17 03:04:22;;;;;;;9.77;4.33;;;;;;;-2.56;82.10;99327.88;5056330;28;20257;-74
2024/01/17 03:06:51;;;;;;;7.43;4.23;;;;;;;-2.56;81.40;99338.38;5056375;28;20226;-74
2024/01/17 03:09:19;;;;;;;9.20;4.23;;;;;;;-2.60;81.71;99336.91;5056370;28;20263;-74
2024/01/17 03:11:48;;;;;;;6.27;4.00;;;;;;;-2.66;81.29;99321.66;5056503;28;20205;-74
2024/01/17 03:14:16;;;;;;;7.77;4.30;;;;;;;-2.56;82.52;99316.56;5056183;28;20761;-75
2024/01/17 03:16:46;;;;;;;10.57;5.77;;;;;;;-2.58;82.70;99310.63;5056171;28;20248;-74
2024/01/17 03:19:15;;;;;;;8.07;5.07;;;;;;;-2.56;82.43;99301.69;5054634;28;20661;-74
2024/01/17 03:21:49;;;;;;;7.10;5.03;;;;;;;-2.57;82.88;99286.91;5056537;28;20275;-74
2024/01/17 03:24:17;;;;;;;13.37;6.30;;;;;;;-2.58;82.95;99272.16;5056155;28;20226;-74
2024/01/17 03:26:46;;;;;;;13.77;8.00;;;;;;;-2.60;83.18;99268.78;5055694;28;20231;-74
2024/01/17 03:29:14;;;;;;;10.70;5.33;;;;;;;-2.61;83.22;99256.66;5056010;28;20206;-76
2024/01/17 03:31:43;;;;;;;8.57;5.20;;;;;;;-2.54;83.84;99256.22;5056085;28;20289;-75
2024/01/17 03:34:12;;;;;;;10.83;4.70;;;;;;;-2.51;83.01;99253.34;5055695;28;20222;-74
2024/01/17 03:36:41;;;;;;;6.80;3.93;;;;;;;-2.48;84.02;99240.03;5055591;28;20603;-74
2024/01/17 03:39:09;;;;;;;14.17;4.50;;;;;;;-2.45;82.49;99231.94;5055851;28;20206;-74
2024/01/17 03:41:38;;;;;;;6.83;4.27;;;;;;;-2.45;82.50;99221.44;5056099;28;20213;-74
2024/01/17 03:44:06;;;;;;;8.27;3.93;;;;;;;-2.44;82.53;99210.84;5055681;28;20226;-74
2024/01/17 03:46:35;;;;;;;8.10;4.40;;;;;;;-2.44;83.59;99208.25;5055530;28;20265;-74
2024/01/17 03:49:03;;;;;;;7.80;4.07;;;;;;;-2.46;82.26;99190.94;5055263;28;20624;-75
2024/01/17 03:51:33;;;;;;;10.00;5.37;;;;;;;-2.43;82.61;99193.34;5055668;28;20222;-74
2024/01/17 03:54:02;;;;;;;6.47;4.20;;;;;;;-2.44;83.99;99194.31;5055453;28;20650;-74
2024/01/17 03:56:30;;;;;;;8.73;4.40;;;;;;;-2.44;82.53;99191.69;5055526;28;20216;-74
2024/01/17 03:58:59;;;;;;;8.40;4.27;;;;;;;-2.46;83.47;99190.94;5055397;28;20260;-74
2024/01/17 04:01:27;;;;;;;9.10;4.40;;;;;;;-2.46;82.95;99186.53;5055456;28;20216;-74
2024/01/17 04:03:56;;;;;;;8.30;4.63;;;;;;;-2.45;83.09;99184.75;5055306;28;20230;-74
2024/01/17 04:06:25;;;;;;;7.73;4.43;;;;;;;-2.48;83.92;99170.13;5055310;28;20229;-75
2024/01/17 04:08:55;;;;;;;8.00;4.83;;;;;;;-2.47;84.40;99179.66;5054996;28;20760;-75
2024/01/17 04:11:24;;;;;;;20.17;15.07;;;;;;;-2.55;84.50;99176.75;5055389;28;20239;-75
2024/01/17 04:13:53;;;;;;;16.50;9.90;;;;;;;-2.57;83.82;99171.63;5055022;28;20252;-74
2024/01/17 04:16:21;;;;;;;13.53;6.87;;;;;;;-2.53;84.63;99163.56;5055227;28;20304;-74
2024/01/17 04:18:50;;;;;;;9.43;5.97;;;;;;;-2.52;83.38;99158.19;5054981;28;20310;-74
2024/01/17 04:21:20;;;;;;;9.50;5.43;;;;;;;-2.52;83.55;99157.34;5055108;28;20206;-74
2024/01/17 04:23:49;;;;;;;10.87;6.43;;;;;;;-2.49;83.89;99164.97;5054945;28;20572;-74
2024/01/17 04:26:23;;;;;;;13.27;5.97;;;;;;;-2.51;84.69;99159.03;5054991;28;20206;-74
2024/01/17 04:28:53;;;;;;;12.00;6.17;;;;;;;-2.53;83.61;99158.31;5055325;28;20198;-75
2024/01/17 04:31:26;;;;;;;9.17;5.57;;;;;;;-2.56;84.34;99154.97;5054854;28;20264;-74
2024/01/17 04:33:55;;;;;;;10.53;5.73;;;;;;;-2.55;85.42;99153.19;5054636;28;20225;-74
2024/01/17 04:36:27;;;;;;;9.47;5.80;;;;;;;-2.58;85.30;99146.41;5054421;28;20220;-74
2024/01/17 04:38:56;;;;;;;13.93;6.43;;;;;;;-2.60;85.17;99137.81;5054680;28;20225;-75
2024/01/17 04:41:25;;;;;;;9.73;5.30;;;;;;;-2.60;85.11;99137.81;5055050;28;20214;-75
2024/01/17 04:43:55;;;;;;;11.73;6.13;;;;;;;-2.61;85.93;99144.03;5054523;28;20615;-74
2024/01/17 04:46:24;;;;;;;9.50;6.07;;;;;;;-2.62;85.23;99134.47;5054198;28;20221;-74
2024/01/17 04:48:52;;;;;;;10.80;5.80;;;;;;;-2.61;85.93;99125.69;5054534;28;20202;-74
2024/01/17 04:51:22;;;;;;;10.87;6.30;;;;;;;-2.58;85.55;99125.44;5054499;28;20213;-74
2024/01/17 04:53:51;;;;;;;12.90;6.60;;;;;;;-2.59;86.47;99123.75;5054446;28;20222;-74
2024/01/17 04:56:20;;;;;;;12.17;6.93;;;;;;;-2.59;86.25;99123.75;5054384;28;20202;-76
2024/01/17 04:58:50;;;;;;;14.37;7.03;;;;;;;-2.58;86.85;99124.59;5054386;28;20260;-75
2024/01/17 05:01:18;;;;;;;15.90;6.80;;;;;;;-2.57;86.35;99115.81;5054014;28;20652;-74
2024/01/17 05:03:47;;;;;;;11.70;6.73;;;;;;;-2.59;87.19;99129.00;5054244;28;20309;-74
2024/01/17 05:06:15;;;;;;;12.23;6.97;;;;;;;-2.58;87.02;99130.69;5054292;28;20206;-74
2024/01/17 05:08:44;;;;;;;13.93;7.87;;;;;;;-2.59;86.79;99126.38;5054356;28;20225;-75
2024/01/17 05:11:12;;;;;;;11.97;7.13;;;;;;;-2.63;87.46;99127.56;5054212;28;20213;-75
2024/01/17 05:13:41;;;;;;;13.00;7.77;;;;;;;-2.66;86.96;99112.09;5054344;28;20252;-75
2024/01/17 05:16:11;;;;;;;12.60;6.93;;;;;;;-2.65;87.19;99124.25;5054067;28;20216;-75
2024/01/17 05:18:39;;;;;;;14.73;7.80;;;;;;;-2.68;87.10;99118.41;5053573;28;20575;-75
2024/01/17 05:21:08;;;;;;;11.17;6.67;;;;;;;-2.68;87.97;99114.00;5053567;28;20675;-75
2024/01/17 05:23:38;;;;;;;12.53;7.20;;;;;;;-2.70;87.00;99100.16;5053552;28;20238;-75
2024/01/17 05:26:07;;;;;;;11.30;6.97;;;;;;;-2.68;88.32;99092.22;5053804;28;20209;-75
2024/01/17 05:28:35;;;;;;;17.50;8.60;;;;;;;-2.72;87.13;99094.22;5053749;28;20593;-75
2024/01/17 05:31:05;;;;;;;15.80;8.10;;;;;;;-2.71;86.96;99090.66;5053763;28;20579;-75
2024/01/17 05:33:35;;;;;;;11.77;7.80;;;;;;;-2.72;87.65;99088.97;5053619;28;20248;-74
2024/01/17 05:36:04;;;;;;;19.40;7.70;;;;;;;-2.71;87.22;99071.50;5054088;28;20224;-76
2024/01/17 05:38:32;;;;;;;14.40;7.30;;;;;;;-2.71;88.08;99077.56;5053680;28;20289;-75
2024/01/17 05:41:01;;;;;;;14.10;7.90;;;;;;;-2.70;87.48;99068.72;5053324;28;20611;-76
2024/01/17 05:43:30;;;;;;;17.30;8.83;;;;;;;-2.69;87.29;99059.09;5052638;28;20308;-75
2024/01/17 05:45:58;;;;;;;12.50;7.93;;;;;;;-2.70;87.59;99063.50;5053618;28;20245;-75
2024/01/17 05:48:27;;;;;;;13.73;8.43;;;;;;;-2.71;88.05;99056.63;5053793;28;20265;-75
2024/01/17 05:50:57;;;;;;;15.93;7.97;;;;;;;-2.71;88.54;99050.53;5053264;28;20212;-75
2024/01/17 05:53:25;;;;;;;13.83;8.33;;;;;;;-2.71;87.60;99046.13;5053741;28;20229;-75
2024/01/17 05:55:54;;;;;;;12.70;7.87;;;;;;;-2.72;88.56;99039.22;5053150;28;20221;-75
2024/01/17 05:58:22;;;;;;;16.07;9.07;;;;;;;-2.73;88.46;99036.69;5053506;28;20301;-75
2024/01/17 06:00:53;;;;;;;19.00;9.33;;;;;;;-2.75;87.88;99034.22;5053167;28;20633;-75
2024/01/17 06:03:21;;;;;;;12.97;8.40;;;;;;;-2.76;88.29;99034.31;5053392;28;20284;-75
2024/01/17 06:05:51;;;;;;;16.70;9.47;;;;;;;-2.77;87.97;99028.25;5053631;28;20213;-76
2024/01/17 06:08:21;;;;;;;13.43;7.73;;;;;;;-2.81;88.95;99023.38;5053317;28;20226;-76
2024/01/17 06:10:49;;;;;;;12.57;8.83;;;;;;;-2.82;88.87;99017.31;5053355;28;20206;-74
2024/01/17 06:13:20;;;;;;;19.13;9.40;;;;;;;-2.84;89.83;99013.16;5052994;28;20811;-76
2024/01/17 06:15:48;;;;;;;17.60;9.63;;;;;;;-2.84;90.38;99006.09;5053325;28;20207;-76
2024/01/17 06:18:17;;;;;;;16.03;9.07;;;;;;;-2.85;89.85;98996.59;5053189;28;20638;-75
2024/01/17 06:20:46;;;;;;;14.23;8.17;;;;;;;-2.83;89.63;98989.44;5053380;28;20233;-74
2024/01/17 06:23:15;;;;;;;11.43;8.20;;;;;;;-2.85;89.30;98991.38;5053273;28;20264;-74
2024/01/17 06:25:45;;;;;;;14.60;9.23;;;;;;;-2.87;90.21;98988.00;5053161;28;20210;-75
2024/01/17 06:28:13;;;;;;;18.57;9.77;;;;;;;-2.90;89.96;98987.41;5053096;28;20229;-74
2024/01/17 06:30:42;;;;;;;14.97;9.37;;;;;;;-2.92;90.08;98995.41;5053191;28;20227;-75
2024/01/17 06:33:11;;;;;;;18.27;9.10;;;;;;;-2.92;90.54;98990.16;5053006;28;20230;-74
2024/01/17 06:35:40;;;;;;;16.87;9.63;;;;;;;-2.90;90.74;98993.50;5052791;28;20214;-74
2024/01/17 06:38:08;;;;;;;19.17;9.27;;;;;;;-2.92;90.52;98995.41;5053054;28;20299;-74
2024/01/17 06:40:36;;;;;;;13.97;8.57;;;;;;;-2.94;90.17;98981.59;5053131;28;20297;-75
2024/01/17 06:43:10;;;;;;;17.10;9.60;;;;;;;-2.92;91.48;98977.09;5052952;28;20699;-74
2024/01/17 06:45:38;;;;;;;17.57;9.57;;;;;;;-2.92;90.54;98979.69;5053062;28;20213;-75
2024/01/17 06:48:07;;;;;;;13.17;9.00;;;;;;;-2.93;91.04;98967.56;5052612;28;20704;-74
2024/01/17 06:50:36;;;;;;;15.30;9.33;;;;;;;-2.88;90.40;98965.41;5053319;28;20293;-74
2024/01/17 06:53:04;;;;;;;13.27;9.03;;;;;;;-2.84;90.76;98956.34;5053383;28;20226;-75
2024/01/17 06:55:33;;;;;;;11.97;8.97;;;;;;;-2.88;90.50;98957.56;5056450;28;20298;-74
2024/01/17 06:58:01;;;;;;;13.97;8.50;;;;;;;-2.94;90.75;98955.41;5056402;28;20570;-74
2024/01/17 07:00:31;;;;;;;16.03;9.50;;;;;;;-2.95;90.90;98955.53;5056350;28;20206;-75
2024/01/17 07:03:02;;;;;;;14.20;8.80;;;;;;;-2.96;90.85;98949.47;5056546;28;20230;-74
2024/01/17 07:05:30;;;;;;;15.43;8.63;;;;;;;-2.95;90.92;98952.91;5056889;28;20260;-75
2024/01/17 07:07:59;;;;;;;15.37;8.90;;;;;;;-2.98;89.94;98940.91;5056462;28;20645;-75
2024/01/17 07:10:28;;;;;;;15.97;8.90;;;;;;;-2.98;89.83;98933.06;5056790;28;20205;-74
2024/01/17 07:12:57;;;;;;;16.33;8.47;;;;;;;-2.99;90.03;98930.53;5056656;28;20313;-74
2024/01/17 07:15:25;;;;;;;10.97;8.23;;;;;;;-2.99;89.77;98933.16;5056489;28;20667;-74
2024/01/17 07:17:55;;;;;;;13.50;8.00;;;;;;;-3.00;90.43;98923.63;5056516;28;20210;-75
2024/01/17 07:20:23;;;;;;;13.10;8.57;;;;;;;-3.02;89.96;98921.16;5056240;28;20584;-75
2024/01/17 07:22:52;;;;;;;17.13;8.47;;;;;;;-3.02;90.61;98909.84;5057251;28;20261;-74
2024/01/17 07:25:21;;;;;;;17.67;9.20;;;;;;;-3.03;89.99;98906.38;5068642;28;20205;-74
2024/01/17 07:27:49;;;;;;;16.37;7.77;;;;;;;-3.07;91.43;98903.19;5060277;28;20213;-74
2024/01/17 07:30:19;;;;;;;15.97;8.73;;;;;;;-3.07;91.09;98892.69;5056830;28;20210;-75
2024/01/17 07:32:48;;;;;;;17.17;9.07;;;;;;;-3.07;91.18;98894.47;5057097;28;20226;-74
2024/01/17 07:35:18;;;;;;;14.33;8.43;;;;;;;-3.08;91.30;98890.19;5072283;28;20194;-71
2024/01/17 07:37:46;;;;;;;14.37;9.60;;;;;;;-3.20;90.86;98891.16;5081664;28;20189;-71
2024/01/17 07:40:16;;;;;;;17.43;9.40;;;;;;;-3.28;90.60;98890.91;5066726;28;20640;-75
2024/01/17 07:42:44;;;;;;;17.07;9.57;;;;;;;-3.28;91.33;98888.28;5056245;28;20229;-75
2024/01/17 07:45:13;;;;;;;16.83;9.20;;;;;;;-3.33;91.71;98874.75;5055657;28;20293;-75
2024/01/17 07:47:41;;;;;;;16.17;9.00;;;;;;;-3.35;91.46;98884.47;5055619;28;20202;-75
2024/01/17 07:50:11;;;;;;;19.13;9.17;;;;;;;-3.29;91.44;98887.47;5055500;28;20234;-76
2024/01/17 07:52:40;;;;;;;13.30;8.60;;;;;;;-3.25;91.75;98874.97;5055448;28;20309;-74
2024/01/17 07:55:10;;;;;;;17.10;9.37;;;;;;;-3.19;91.93;98871.91;5055401;28;20206;-74
2024/01/17 07:57:38;;;;;;;15.07;8.80;;;;;;;-3.17;91.50;98860.34;5055713;28;20293;-74
2024/01/17 08:00:08;;;;;;;14.43;9.10;;;;;;;-3.13;91.78;98863.56;5055989;28;20212;-74
2024/01/17 08:02:37;;;;;;;15.50;9.00;;;;;;;-3.11;91.84;98859.03;5055520;28;20222;-74
2024/01/17 08:05:05;;;;;;;14.30;9.03;;;;;;;-3.11;91.50;98859.88;5054693;28;20210;-74
2024/01/17 08:07:34;;;;;;;15.83;8.97;;;;;;;-3.08;92.12;98856.16;5055267;28;20208;-76
2024/01/17 08:10:04;;;;;;;13.30;8.37;;;;;;;-3.06;91.49;98859.50;5055108;28;20261;-74
2024/01/17 08:12:36;;;;;;;13.53;8.13;;;;;;;-3.04;91.42;98859.38;5054821;28;20226;-74
2024/01/17 08:15:08;;;;;;;13.97;8.40;;;;;;;-3.09;90.32;98851.91;5055128;28;20256;-74
2024/01/17 08:17:36;;;;;;;12.53;7.97;;;;;;;-3.10;90.05;98855.47;5055110;28;20194;-74
2024/01/17 08:20:07;;;;;;;12.70;8.17;;;;;;;-3.09;89.87;98844.06;5055254;28;20210;-74
2024/01/17 08:22:36;;;;;;;11.30;8.07;;;;;;;-3.10;89.61;98834.53;5054918;28;20230;-74
2024/01/17 08:25:07;;;;;;;13.67;8.70;;;;;;;-3.10;88.94;98840.59;5054922;28;20201;-74
2024/01/17 08:27:36;;;;;;;16.10;8.30;;;;;;;-3.08;89.37;98838.69;5054887;28;20599;-74
2024/01/17 08:30:09;;;;;;;14.63;8.70;;;;;;;-3.03;89.93;98830.47;5054439;28;20596;-74
2024/01/17 08:32:38;;;;;;;15.10;8.47;;;;;;;-3.00;89.71;98827.59;5055328;28;20226;-74
2024/01/17 08:35:08;;;;;;;12.17;8.10;;;;;;;-2.96;90.02;98829.03;5054436;28;20217;-74
2024/01/17 08:37:36;;;;;;;18.20;8.00;;;;;;;-2.96;89.59;98820.34;5054677;28;20293;-74
2024/01/17 08:40:08;;;;;;;13.73;7.53;;;;;;;-2.92;90.05;98816.53;5054435;28;20240;-75
2024/01/17 08:42:36;;;;;;;13.83;7.63;;;;;;;-2.91;89.34;98808.53;5054793;28;20280;-74
2024/01/17 08:45:06;;;;;;;12.93;7.57;;;;;;;-2.88;89.82;98797.84;5054314;28;20628;-75
2024/01/17 08:47:34;;;;;;;14.50;8.10;;;;;;;-2.87;90.22;98789.00;5054731;28;20278;-75
2024/01/17 08:50:04;;;;;;;13.83;8.10;;;;;;;-2.83;89.13;98789.59;5054413;28;20566;-75
2024/01/17 08:52:32;;;;;;;16.47;7.70;;;;;;;-2.81;89.25;98782.47;5054333;28;20232;-74
2024/01/17 08:55:02;;;;;;;15.83;8.67;;;;;;;-2.80;89.30;98773.63;5054083;28;20738;-74
2024/01/17 08:57:32;;;;;;;15.50;7.70;;;;;;;-2.78;89.54;98767.34;5054402;28;20198;-74
2024/01/17 09:00:00;;;;;;;15.67;7.10;;;;;;;-2.78;89.26;98759.47;5054011;28;20747;-74
2024/01/17 09:02:29;;;;;;;13.23;7.80;;;;;;;-2.74;89.60;98758.25;5054272;28;20313;-74
2024/01/17 09:04:58;;;;;;;16.57;7.70;;;;;;;-2.72;89.91;98745.88;5054200;28;20267;-74
2024/01/17 09:07:27;;;;;;;13.83;8.27;;;;;;;-2.73;88.76;98736.34;5054049;28;20655;-74
2024/01/17 09:10:00;;;;;;;12.63;7.20;;;;;;;-2.71;90.20;98741.47;5054178;28;20294;-74
2024/01/17 09:12:28;;;;;;;11.73;7.60;;;;;;;-2.71;89.19;98726.59;5054000;28;20265;-75
2024/01/17 09:14:59;;;;;;;11.67;7.30;;;;;;;-2.72;88.65;98727.53;5053667;28;20670;-75
2024/01/17 09:17:28;;;;;;;14.93;7.67;;;;;;;-2.71;88.54;98723.97;5053212;28;20186;-75
2024/01/17 09:19:56;;;;;;;14.13;7.27;;;;;;;-2.69;89.03;98719.44;5054146;28;20206;-75
2024/01/17 09:22:25;;;;;;;13.67;7.20;;;;;;;-2.66;89.95;98720.97;5053698;28;20707;-74
2024/01/17 09:24:53;;;;;;;13.23;7.50;;;;;;;-2.69;88.15;98722.06;5053811;28;20212;-74
2024/01/17 09:27:22;;;;;;;13.20;7.37;;;;;;;-2.65;88.76;98710.38;5053794;28;20241;-75
2024/01/17 09:29:50;;;;;;;12.97;7.30;;;;;;;-2.64;89.08;98712.00;5053405;28;20233;-74
2024/01/17 09:32:20;;;;;;;15.17;8.10;;;;;;;-2.59;89.27;98709.84;5053628;28;20698;-74
2024/01/17 09:34:51;;;;;;;13.23;7.37;;;;;;;-2.57;88.81;98707.13;5053654;28;20216;-74
2024/01/17 09:37:20;;;;;;;12.80;7.83;;;;;;;-2.54;88.82;98709.47;5053689;28;20206;-75
2024/01/17 09:39:48;;;;;;;14.73;7.70;;;;;;;-2.56;87.90;98706.97;5053775;28;20293;-75
2024/01/17 09:42:17;;;;;;;16.40;7.70;;;;;;;-2.50;88.46;98696.97;5053641;28;20300;-74
2024/01/17 09:44:46;;;;;;;11.60;6.23;;;;;;;-2.45;88.27;98700.00;5053637;28;20271;-76
2024/01/17 09:47:16;;;;;;;14.63;8.03;;;;;;;-2.45;88.56;98684.28;5053750;28;20263;-74
2024/01/17 09:49:46;;;;;;;13.23;7.77;;;;;;;-2.45;86.82;98682.50;5053549;28;20257;-76
2024/01/17 09:52:18;;;;;;;13.57;7.53;;;;;;;-2.41;87.79;98680.47;5053462;28;20213;-74
2024/01/17 09:54:49;;;;;;;13.13;7.60;;;;;;;-2.38;88.29;98675.78;5053501;28;20244;-74
2024/01/17 09:57:22;;;;;;;13.53;8.10;;;;;;;-2.36;87.32;98673.84;5053713;28;20194;-74
2024/01/17 09:59:58;;;;;;;17.00;7.93;;;;;;;-2.35;87.92;98669.44;5053426;28;20186;-74
2024/01/17 10:02:28;;;;;;;12.47;7.87;;;;;;;-2.36;85.93;98659.94;5053009;28;20320;-74
2024/01/17 10:04:59;;;;;;;13.93;7.77;;;;;;;-2.35;85.71;98658.97;5053420;28;20234;-74
2024/01/17 10:07:28;;;;;;;12.30;8.17;;;;;;;-2.35;85.67;98651.94;5053396;28;20281;-74
2024/01/17 10:09:57;;;;;;;12.80;7.83;;;;;;;-2.33;86.95;98651.81;5053329;28;20347;-75
2024/01/17 10:12:26;;;;;;;13.27;8.03;;;;;;;-2.33;86.19;98650.00;5053676;28;20233;-76
2024/01/17 10:14:57;;;;;;;10.97;7.73;;;;;;;-2.31;85.08;98642.03;5054140;28;20294;-74
2024/01/17 10:17:26;;;;;;;14.13;7.73;;;;;;;-2.32;84.21;98642.97;5053207;28;20251;-74
2024/01/17 10:19:56;;;;;;;16.07;7.83;;;;;;;-2.27;86.35;98635.56;5053111;28;20672;-74
2024/01/17 10:22:25;;;;;;;17.40;8.40;;;;;;;-2.25;87.01;98628.41;5053589;28;20230;-74
2024/01/17 10:24:54;;;;;;;11.60;7.40;;;;;;;-2.26;84.11;98632.81;5053987;28;20289;-74
2024/01/17 10:27:22;;;;;;;14.43;7.60;;;;;;;-2.33;82.51;98623.81;5053386;28;20210;-74
2024/01/17 10:29:52;;;;;;;12.27;7.67;;;;;;;-2.26;84.01;98621.53;5056242;28;20241;-74
2024/01/17 10:32:21;;;;;;;14.30;7.80;;;;;;;-2.21;86.02;98614.06;5056686;28;20676;-74
2024/01/17 10:34:50;;;;;;;13.07;8.50;;;;;;;-2.22;85.30;98607.16;5056837;28;20267;-74
2024/01/17 10:37:20;;;;;;;14.63;8.07;;;;;;;-2.25;83.19;98600.41;5056979;28;20210;-74
2024/01/17 10:40:09;;;;;;;14.87;7.67;;;;;;;-2.27;81.84;98598.88;5056992;28;20221;-74
2024/01/17 10:42:38;;;;;;;14.43;7.87;;;;;;;-2.24;82.79;98603.84;5056859;28;20229;-74
2024/01/17 10:45:08;;;;;;;17.83;8.67;;;;;;;-2.22;82.49;98594.06;5056570;28;20206;-74
2024/01/17 10:47:37;;;;;;;13.00;8.00;;;;;;;-2.17;82.42;98584.03;5057042;28;20206;-74
2024/01/17 10:50:06;;;;;;;13.97;7.23;;;;;;;-2.21;81.25;98580.84;5056838;28;20233;-74
2024/01/17 10:52:41;;;;;;;14.40;7.97;;;;;;;-2.15;83.17;98571.59;5056627;28;20332;-74
2024/01/17 10:55:13;;;;;;;14.30;8.43;;;;;;;-2.11;83.22;98567.75;5056727;28;20280;-74
2024/01/17 10:57:43;;;;;;;12.63;7.93;;;;;;;-2.13;81.60;98562.66;5057260;28;20229;-74
2024/01/17 11:00:16;;;;;;;10.73;7.43;;;;;;;-2.11;83.12;98558.09;5056744;28;20194;-75
2024/01/17 11:02:47;;;;;;;16.73;8.73;;;;;;;-2.05;84.87;98556.72;5056614;28;20236;-74
2024/01/17 11:05:18;;;;;;;12.80;7.60;;;;;;;-2.01;84.15;98558.13;5056666;28;20206;-75
2024/01/17 11:07:49;;;;;;;12.17;8.00;;;;;;;-1.99;84.12;98553.59;5056382;28;20237;-74
2024/01/17 11:10:20;;;;;;;11.57;7.30;;;;;;;-1.96;83.01;98550.69;5056871;28;20293;-74
2024/01/17 11:12:50;;;;;;;12.10;7.87;;;;;;;-1.96;82.50;98544.63;5056259;28;20272;-74
2024/01/17 11:15:19;;;;;;;13.80;8.20;;;;;;;-1.94;83.21;98534.81;5055973;28;20642;-74
2024/01/17 11:17:49;;;;;;;17.73;8.43;;;;;;;-1.93;83.10;98524.19;5056156;28;20206;-74
2024/01/17 11:20:18;;;;;;;13.27;7.67;;;;;;;-1.88;85.24;98524.59;5056168;28;20198;-74
2024/01/17 11:22:49;;;;;;;15.27;8.03;;;;;;;-1.85;84.93;98526.94;5056044;28;20320;-74
2024/01/17 11:25:24;;;;;;;14.63;8.27;;;;;;;-1.82;85.65;98505.72;5055935;28;20285;-75
2024/01/17 11:28:04;;;;;;;12.00;8.10;;;;;;;-1.80;84.46;98500.31;5056053;28;20636;-75
2024/01/17 11:30:52;;;;;;;13.43;8.63;;;;;;;-1.77;84.97;98497.41;5055963;28;20264;-75
2024/01/17 11:33:22;;;;;;;14.30;8.27;;;;;;;-1.74;84.79;98503.22;5055734;28;20750;-76
2024/01/17 11:35:53;;;;;;;15.77;8.33;;;;;;;-1.71;86.78;98499.50;5055566;28;20210;-74